sensor_id;sensor_type;location;lat;lon;timestamp;P1;durP1;ratioP1;P2;durP2;ratioP2
15806;SDS011;8005;51.368;6.140;2022-09-28T17:55:15;8.57;;;4.90;;
15806;SDS011;8005;51.368;6.140;2022-09-28T17:56:49;7.88;;;4.55;;
15806;SDS011;8005;51.368;6.140;2022-09-28T17:58:21;7.93;;;5.57;;
15806;SDS011;8005;51.368;6.140;2022-09-28T18:00:05;7.90;;;5.45;;
15806;SDS011;8005;51.368;6.140;2022-09-28T18:01:37;6.45;;;4.63;;
15806;SDS011;8005;51.368;6.140;2022-09-28T18:03:17;6.43;;;4.38;;
15806;SDS011;8005;51.368;6.140;2022-09-28T18:04:52;7.65;;;5.05;;
15806;SDS011;8005;51.368;6.140;2022-09-28T18:06:24;7.72;;;4.90;;
15806;SDS011;8005;51.368;6.140;2022-09-28T18:07:56;6.38;;;4.75;;
15806;SDS011;8005;51.368;6.140;2022-09-28T18:09:29;8.70;;;5.80;;
15806;SDS011;8005;51.368;6.140;2022-09-28T18:11:00;6.85;;;5.93;;
15806;SDS011;8005;51.368;6.140;2022-09-28T18:12:32;6.93;;;6.00;;
15806;SDS011;8005;51.368;6.140;2022-09-28T18:14:11;8.27;;;6.28;;
15806;SDS011;8005;51.368;6.140;2022-09-28T18:15:44;8.38;;;6.25;;
15806;SDS011;8005;51.368;6.140;2022-09-28T18:17:15;8.77;;;6.45;;
15806;SDS011;8005;51.368;6.140;2022-09-28T18:18:47;11.43;;;6.38;;
15806;SDS011;8005;51.368;6.140;2022-09-28T18:20:19;11.75;;;7.07;;
15806;SDS011;8005;51.368;6.140;2022-09-28T18:21:54;9.75;;;7.97;;
15806;SDS011;8005;51.368;6.140;2022-09-28T18:23:26;10.90;;;7.88;;
15806;SDS011;8005;51.368;6.140;2022-09-28T18:24:58;13.23;;;8.85;;
15806;SDS011;8005;51.368;6.140;2022-09-28T18:26:30;8.57;;;7.63;;
15806;SDS011;8005;51.368;6.140;2022-09-28T18:28:01;10.82;;;7.40;;
15806;SDS011;8005;51.368;6.140;2022-09-28T18:29:33;10.35;;;8.77;;
15806;SDS011;8005;51.368;6.140;2022-09-28T18:31:06;12.18;;;7.63;;
15806;SDS011;8005;51.368;6.140;2022-09-28T18:32:38;11.70;;;7.60;;
15806;SDS011;8005;51.368;6.140;2022-09-28T18:34:10;8.95;;;6.20;;
15806;SDS011;8005;51.368;6.140;2022-09-28T18:35:53;11.73;;;7.40;;
15806;SDS011;8005;51.368;6.140;2022-09-28T18:37:25;9.75;;;7.47;;
15806;SDS011;8005;51.368;6.140;2022-09-28T18:38:58;9.57;;;6.85;;
15806;SDS011;8005;51.368;6.140;2022-09-28T18:40:32;10.20;;;7.47;;
15806;SDS011;8005;51.368;6.140;2022-09-28T18:42:04;13.50;;;8.13;;
15806;SDS011;8005;51.368;6.140;2022-09-28T18:43:37;13.80;;;7.25;;
15806;SDS011;8005;51.368;6.140;2022-09-28T18:45:09;10.07;;;6.30;;
15806;SDS011;8005;51.368;6.140;2022-09-28T18:46:43;8.05;;;6.32;;
15806;SDS011;8005;51.368;6.140;2022-09-28T18:48:15;8.63;;;6.50;;
15806;SDS011;8005;51.368;6.140;2022-09-28T18:49:47;9.73;;;6.32;;
15806;SDS011;8005;51.368;6.140;2022-09-28T18:51:21;10.20;;;6.35;;
15806;SDS011;8005;51.368;6.140;2022-09-28T18:52:52;10.30;;;6.57;;
15806;SDS011;8005;51.368;6.140;2022-09-28T18:54:24;10.70;;;6.37;;
15806;SDS011;8005;51.368;6.140;2022-09-28T18:56:03;8.25;;;6.03;;
15806;SDS011;8005;51.368;6.140;2022-09-28T18:57:36;9.38;;;6.30;;
15806;SDS011;8005;51.368;6.140;2022-09-28T18:59:10;9.02;;;6.10;;
15806;SDS011;8005;51.368;6.140;2022-09-28T19:00:44;11.30;;;6.22;;
15806;SDS011;8005;51.368;6.140;2022-09-28T19:02:16;11.07;;;6.60;;
15806;SDS011;8005;51.368;6.140;2022-09-28T19:03:48;12.60;;;7.60;;
15806;SDS011;8005;51.368;6.140;2022-09-28T19:05:20;9.88;;;6.13;;
15806;SDS011;8005;51.368;6.140;2022-09-28T19:06:52;7.82;;;5.85;;
15806;SDS011;8005;51.368;6.140;2022-09-28T19:08:24;7.72;;;6.55;;
15806;SDS011;8005;51.368;6.140;2022-09-28T19:09:58;13.57;;;8.98;;
15806;SDS011;8005;51.368;6.140;2022-09-28T19:11:29;12.02;;;7.85;;
15806;SDS011;8005;51.368;6.140;2022-09-28T19:13:01;11.90;;;8.20;;
15806;SDS011;8005;51.368;6.140;2022-09-28T19:14:33;9.45;;;6.78;;
15806;SDS011;8005;51.368;6.140;2022-09-28T19:16:08;8.00;;;5.78;;
15806;SDS011;8005;51.368;6.140;2022-09-28T19:17:40;9.02;;;6.15;;
15806;SDS011;8005;51.368;6.140;2022-09-28T19:19:15;8.82;;;6.93;;
15806;SDS011;8005;51.368;6.140;2022-09-28T19:20:48;8.25;;;6.60;;
15806;SDS011;8005;51.368;6.140;2022-09-28T19:22:19;10.50;;;7.40;;
15806;SDS011;8005;51.368;6.140;2022-09-28T19:23:51;9.73;;;6.90;;
15806;SDS011;8005;51.368;6.140;2022-09-28T19:25:25;9.25;;;6.82;;
15806;SDS011;8005;51.368;6.140;2022-09-28T19:26:57;10.13;;;7.28;;
15806;SDS011;8005;51.368;6.140;2022-09-28T19:28:29;10.82;;;7.50;;
15806;SDS011;8005;51.368;6.140;2022-09-28T19:30:01;10.38;;;6.85;;
15806;SDS011;8005;51.368;6.140;2022-09-28T19:31:33;9.95;;;7.00;;
15806;SDS011;8005;51.368;6.140;2022-09-28T19:33:05;11.43;;;7.18;;
15806;SDS011;8005;51.368;6.140;2022-09-28T19:34:37;8.25;;;6.07;;
15806;SDS011;8005;51.368;6.140;2022-09-28T19:36:10;10.48;;;7.53;;
15806;SDS011;8005;51.368;6.140;2022-09-28T19:37:42;9.88;;;6.85;;
15806;SDS011;8005;51.368;6.140;2022-09-28T19:39:17;9.77;;;7.63;;
15806;SDS011;8005;51.368;6.140;2022-09-28T19:40:48;12.45;;;8.90;;
15806;SDS011;8005;51.368;6.140;2022-09-28T19:42:20;12.02;;;8.43;;
15806;SDS011;8005;51.368;6.140;2022-09-28T19:43:52;10.60;;;8.30;;
15806;SDS011;8005;51.368;6.140;2022-09-28T19:45:24;10.32;;;8.05;;
15806;SDS011;8005;51.368;6.140;2022-09-28T19:47:01;11.15;;;8.05;;
15806;SDS011;8005;51.368;6.140;2022-09-28T19:51:39;8.63;;;6.72;;
15806;SDS011;8005;51.368;6.140;2022-09-28T19:53:32;11.30;;;6.45;;
15806;SDS011;8005;51.368;6.140;2022-09-28T19:55:07;11.43;;;6.40;;
15806;SDS011;8005;51.368;6.140;2022-09-28T19:56:39;7.53;;;5.90;;
15806;SDS011;8005;51.368;6.140;2022-09-28T19:59:47;8.20;;;6.07;;
15806;SDS011;8005;51.368;6.140;2022-09-28T20:01:23;8.07;;;6.28;;
15806;SDS011;8005;51.368;6.140;2022-09-28T20:02:55;7.37;;;5.93;;
15806;SDS011;8005;51.368;6.140;2022-09-28T20:04:27;7.13;;;5.93;;
15806;SDS011;8005;51.368;6.140;2022-09-28T20:05:59;9.05;;;6.18;;
15806;SDS011;8005;51.368;6.140;2022-09-28T20:09:05;7.15;;;6.03;;
15806;SDS011;8005;51.368;6.140;2022-09-28T20:10:37;8.25;;;6.28;;
15806;SDS011;8005;51.368;6.140;2022-09-28T20:12:11;7.95;;;5.97;;
15806;SDS011;8005;51.368;6.140;2022-09-28T20:13:43;8.30;;;6.60;;
15806;SDS011;8005;51.368;6.140;2022-09-28T20:15:15;9.77;;;6.50;;
15806;SDS011;8005;51.368;6.140;2022-09-28T20:16:47;7.50;;;6.63;;
15806;SDS011;8005;51.368;6.140;2022-09-28T20:18:19;8.48;;;6.80;;
15806;SDS011;8005;51.368;6.140;2022-09-28T20:19:51;9.80;;;6.88;;
15806;SDS011;8005;51.368;6.140;2022-09-28T20:21:23;17.38;;;8.77;;
15806;SDS011;8005;51.368;6.140;2022-09-28T20:22:57;7.45;;;6.50;;
15806;SDS011;8005;51.368;6.140;2022-09-28T20:24:29;10.57;;;7.07;;
15806;SDS011;8005;51.368;6.140;2022-09-28T20:27:33;9.38;;;6.82;;
15806;SDS011;8005;51.368;6.140;2022-09-28T20:29:05;12.05;;;7.53;;
15806;SDS011;8005;51.368;6.140;2022-09-28T20:30:38;12.50;;;7.72;;
15806;SDS011;8005;51.368;6.140;2022-09-28T20:32:10;9.05;;;7.47;;
15806;SDS011;8005;51.368;6.140;2022-09-28T20:33:42;10.85;;;7.18;;
15806;SDS011;8005;51.368;6.140;2022-09-28T20:35:14;9.17;;;7.33;;
15806;SDS011;8005;51.368;6.140;2022-09-28T20:37:02;11.40;;;7.75;;
15806;SDS011;8005;51.368;6.140;2022-09-28T20:38:34;8.57;;;7.07;;
15806;SDS011;8005;51.368;6.140;2022-09-28T20:40:09;12.88;;;7.90;;
15806;SDS011;8005;51.368;6.140;2022-09-28T20:41:41;9.07;;;7.60;;
15806;SDS011;8005;51.368;6.140;2022-09-28T20:43:13;8.65;;;7.50;;
15806;SDS011;8005;51.368;6.140;2022-09-28T20:44:45;11.18;;;7.68;;
15806;SDS011;8005;51.368;6.140;2022-09-28T20:46:17;10.27;;;8.00;;
15806;SDS011;8005;51.368;6.140;2022-09-28T20:47:50;9.65;;;7.53;;
15806;SDS011;8005;51.368;6.140;2022-09-28T20:49:22;17.23;;;8.63;;
15806;SDS011;8005;51.368;6.140;2022-09-28T20:50:58;10.00;;;8.05;;
15806;SDS011;8005;51.368;6.140;2022-09-28T20:52:31;11.60;;;8.65;;
15806;SDS011;8005;51.368;6.140;2022-09-28T20:54:03;12.20;;;8.00;;
15806;SDS011;8005;51.368;6.140;2022-09-28T20:55:35;9.70;;;6.10;;
15806;SDS011;8005;51.368;6.140;2022-09-28T20:57:07;13.40;;;7.72;;
15806;SDS011;8005;51.368;6.140;2022-09-28T20:58:48;11.27;;;8.43;;
15806;SDS011;8005;51.368;6.140;2022-09-28T21:00:21;10.40;;;7.35;;
15806;SDS011;8005;51.368;6.140;2022-09-28T21:01:53;12.48;;;8.40;;
15806;SDS011;8005;51.368;6.140;2022-09-28T21:03:25;13.43;;;8.73;;
15806;SDS011;8005;51.368;6.140;2022-09-28T21:04:57;9.63;;;8.60;;
15806;SDS011;8005;51.368;6.140;2022-09-28T21:06:30;12.18;;;8.68;;
15806;SDS011;8005;51.368;6.140;2022-09-28T21:08:02;14.38;;;8.68;;
15806;SDS011;8005;51.368;6.140;2022-09-28T21:09:34;13.77;;;9.05;;
15806;SDS011;8005;51.368;6.140;2022-09-28T21:11:06;12.17;;;8.73;;
15806;SDS011;8005;51.368;6.140;2022-09-28T21:12:38;14.40;;;9.00;;
15806;SDS011;8005;51.368;6.140;2022-09-28T21:14:11;12.32;;;8.95;;
15806;SDS011;8005;51.368;6.140;2022-09-28T21:15:42;11.93;;;7.88;;
15806;SDS011;8005;51.368;6.140;2022-09-28T21:17:14;16.55;;;9.02;;
15806;SDS011;8005;51.368;6.140;2022-09-28T21:18:46;12.55;;;8.93;;
15806;SDS011;8005;51.368;6.140;2022-09-28T21:20:18;12.88;;;9.00;;
15806;SDS011;8005;51.368;6.140;2022-09-28T21:21:52;12.65;;;8.65;;
15806;SDS011;8005;51.368;6.140;2022-09-28T21:23:24;12.45;;;9.38;;
15806;SDS011;8005;51.368;6.140;2022-09-28T21:24:56;13.10;;;9.27;;
15806;SDS011;8005;51.368;6.140;2022-09-28T21:26:28;15.10;;;9.82;;
15806;SDS011;8005;51.368;6.140;2022-09-28T21:28:00;11.40;;;9.30;;
15806;SDS011;8005;51.368;6.140;2022-09-28T21:29:32;14.68;;;9.70;;
15806;SDS011;8005;51.368;6.140;2022-09-28T21:31:04;12.53;;;9.60;;
15806;SDS011;8005;51.368;6.140;2022-09-28T21:32:37;15.07;;;9.50;;
15806;SDS011;8005;51.368;6.140;2022-09-28T21:34:09;13.13;;;9.52;;
15806;SDS011;8005;51.368;6.140;2022-09-28T21:35:42;12.68;;;9.65;;
15806;SDS011;8005;51.368;6.140;2022-09-28T21:37:14;11.80;;;9.82;;
15806;SDS011;8005;51.368;6.140;2022-09-28T21:38:46;13.02;;;10.07;;
15806;SDS011;8005;51.368;6.140;2022-09-28T21:40:18;17.50;;;9.60;;
15806;SDS011;8005;51.368;6.140;2022-09-28T21:41:50;13.75;;;9.93;;
15806;SDS011;8005;51.368;6.140;2022-09-28T21:43:22;11.63;;;9.77;;
15806;SDS011;8005;51.368;6.140;2022-09-28T21:44:55;13.70;;;9.65;;
15806;SDS011;8005;51.368;6.140;2022-09-28T21:46:29;13.90;;;10.18;;
15806;SDS011;8005;51.368;6.140;2022-09-28T21:48:04;17.75;;;10.13;;
15806;SDS011;8005;51.368;6.140;2022-09-28T21:49:36;14.07;;;10.40;;
15806;SDS011;8005;51.368;6.140;2022-09-28T21:51:09;12.10;;;10.00;;
15806;SDS011;8005;51.368;6.140;2022-09-28T21:52:41;12.27;;;9.18;;
15806;SDS011;8005;51.368;6.140;2022-09-28T21:54:13;11.43;;;9.85;;
15806;SDS011;8005;51.368;6.140;2022-09-28T21:55:45;11.77;;;9.70;;
15806;SDS011;8005;51.368;6.140;2022-09-28T21:57:22;11.30;;;9.38;;
15806;SDS011;8005;51.368;6.140;2022-09-28T21:58:54;12.48;;;9.90;;
15806;SDS011;8005;51.368;6.140;2022-09-28T22:00:26;15.32;;;10.77;;
15806;SDS011;8005;51.368;6.140;2022-09-28T22:01:58;14.30;;;9.45;;
15806;SDS011;8005;51.368;6.140;2022-09-28T22:03:30;11.45;;;10.05;;
15806;SDS011;8005;51.368;6.140;2022-09-28T22:05:02;14.55;;;9.43;;
15806;SDS011;8005;51.368;6.140;2022-09-28T22:06:34;11.32;;;9.98;;
15806;SDS011;8005;51.368;6.140;2022-09-28T22:08:06;13.35;;;10.70;;
15806;SDS011;8005;51.368;6.140;2022-09-28T22:09:39;15.85;;;10.30;;
15806;SDS011;8005;51.368;6.140;2022-09-28T22:11:12;13.55;;;10.60;;
15806;SDS011;8005;51.368;6.140;2022-09-28T22:12:47;13.85;;;10.20;;
15806;SDS011;8005;51.368;6.140;2022-09-28T22:14:19;15.00;;;10.63;;
15806;SDS011;8005;51.368;6.140;2022-09-28T22:15:54;13.63;;;10.27;;
15806;SDS011;8005;51.368;6.140;2022-09-28T22:17:27;17.48;;;10.13;;
15806;SDS011;8005;51.368;6.140;2022-09-28T22:18:59;16.08;;;10.57;;
15806;SDS011;8005;51.368;6.140;2022-09-28T22:20:31;16.05;;;10.82;;
15806;SDS011;8005;51.368;6.140;2022-09-28T22:22:03;12.77;;;10.25;;
15806;SDS011;8005;51.368;6.140;2022-09-28T22:23:35;14.25;;;10.32;;
15806;SDS011;8005;51.368;6.140;2022-09-28T22:25:07;17.20;;;10.80;;
15806;SDS011;8005;51.368;6.140;2022-09-28T22:26:39;15.93;;;10.85;;
15806;SDS011;8005;51.368;6.140;2022-09-28T22:28:11;18.13;;;10.20;;
15806;SDS011;8005;51.368;6.140;2022-09-28T22:29:43;13.68;;;10.20;;
15806;SDS011;8005;51.368;6.140;2022-09-28T22:31:15;16.08;;;10.82;;
15806;SDS011;8005;51.368;6.140;2022-09-28T22:32:47;14.55;;;10.88;;
15806;SDS011;8005;51.368;6.140;2022-09-28T22:34:19;13.80;;;10.43;;
15806;SDS011;8005;51.368;6.140;2022-09-28T22:35:51;13.45;;;10.35;;
15806;SDS011;8005;51.368;6.140;2022-09-28T22:37:24;13.38;;;10.27;;
15806;SDS011;8005;51.368;6.140;2022-09-28T22:38:57;12.20;;;10.20;;
15806;SDS011;8005;51.368;6.140;2022-09-28T22:40:29;14.93;;;11.38;;
15806;SDS011;8005;51.368;6.140;2022-09-28T22:42:01;17.95;;;10.75;;
15806;SDS011;8005;51.368;6.140;2022-09-28T22:43:33;15.63;;;11.05;;
15806;SDS011;8005;51.368;6.140;2022-09-28T22:45:05;13.27;;;10.88;;
15806;SDS011;8005;51.368;6.140;2022-09-28T22:46:37;12.83;;;10.27;;
15806;SDS011;8005;51.368;6.140;2022-09-28T22:48:10;19.00;;;10.15;;
15806;SDS011;8005;51.368;6.140;2022-09-28T22:49:42;15.18;;;10.23;;
15806;SDS011;8005;51.368;6.140;2022-09-28T22:51:13;17.77;;;10.80;;
15806;SDS011;8005;51.368;6.140;2022-09-28T22:52:46;14.75;;;10.68;;
15806;SDS011;8005;51.368;6.140;2022-09-28T22:54:18;18.42;;;11.77;;
15806;SDS011;8005;51.368;6.140;2022-09-28T22:55:52;13.18;;;11.35;;
15806;SDS011;8005;51.368;6.140;2022-09-28T22:57:23;16.42;;;11.80;;
15806;SDS011;8005;51.368;6.140;2022-09-28T22:58:55;14.80;;;11.85;;
15806;SDS011;8005;51.368;6.140;2022-09-28T23:00:27;17.20;;;11.48;;
15806;SDS011;8005;51.368;6.140;2022-09-28T23:01:59;17.45;;;12.35;;
15806;SDS011;8005;51.368;6.140;2022-09-28T23:03:31;14.95;;;10.98;;
15806;SDS011;8005;51.368;6.140;2022-09-28T23:05:03;16.50;;;10.80;;
15806;SDS011;8005;51.368;6.140;2022-09-28T23:06:35;14.55;;;10.63;;
15806;SDS011;8005;51.368;6.140;2022-09-28T23:08:07;16.33;;;12.35;;
15806;SDS011;8005;51.368;6.140;2022-09-28T23:09:38;17.40;;;11.73;;
15806;SDS011;8005;51.368;6.140;2022-09-28T23:11:10;13.87;;;11.00;;
15806;SDS011;8005;51.368;6.140;2022-09-28T23:12:42;18.00;;;11.55;;
15806;SDS011;8005;51.368;6.140;2022-09-28T23:14:14;16.65;;;11.85;;
15806;SDS011;8005;51.368;6.140;2022-09-28T23:16:02;17.88;;;12.32;;
15806;SDS011;8005;51.368;6.140;2022-09-28T23:17:34;15.05;;;12.13;;
15806;SDS011;8005;51.368;6.140;2022-09-28T23:19:06;15.32;;;11.93;;
15806;SDS011;8005;51.368;6.140;2022-09-28T23:20:38;14.80;;;11.77;;
15806;SDS011;8005;51.368;6.140;2022-09-28T23:22:10;13.63;;;10.77;;
15806;SDS011;8005;51.368;6.140;2022-09-28T23:23:42;19.67;;;12.02;;
15806;SDS011;8005;51.368;6.140;2022-09-28T23:25:15;16.52;;;11.43;;
15806;SDS011;8005;51.368;6.140;2022-09-28T23:26:47;19.55;;;11.57;;
15806;SDS011;8005;51.368;6.140;2022-09-28T23:28:19;15.63;;;11.40;;
15806;SDS011;8005;51.368;6.140;2022-09-28T23:29:51;18.10;;;11.98;;
15806;SDS011;8005;51.368;6.140;2022-09-28T23:31:25;16.88;;;12.18;;
15806;SDS011;8005;51.368;6.140;2022-09-28T23:32:58;16.27;;;12.43;;
15806;SDS011;8005;51.368;6.140;2022-09-28T23:34:30;13.77;;;11.90;;
15806;SDS011;8005;51.368;6.140;2022-09-28T23:36:02;15.98;;;10.82;;
15806;SDS011;8005;51.368;6.140;2022-09-28T23:37:33;14.82;;;11.77;;
15806;SDS011;8005;51.368;6.140;2022-09-28T23:39:05;20.40;;;13.73;;
15806;SDS011;8005;51.368;6.140;2022-09-28T23:40:37;14.35;;;11.68;;
15806;SDS011;8005;51.368;6.140;2022-09-28T23:42:09;17.10;;;11.60;;
15806;SDS011;8005;51.368;6.140;2022-09-28T23:43:41;16.10;;;11.45;;
15806;SDS011;8005;51.368;6.140;2022-09-28T23:45:13;14.88;;;10.88;;
15806;SDS011;8005;51.368;6.140;2022-09-28T23:46:44;15.25;;;11.57;;
15806;SDS011;8005;51.368;6.140;2022-09-28T23:48:16;15.43;;;11.05;;
15806;SDS011;8005;51.368;6.140;2022-09-28T23:49:48;14.30;;;11.27;;
15806;SDS011;8005;51.368;6.140;2022-09-28T23:51:20;17.90;;;11.27;;
15806;SDS011;8005;51.368;6.140;2022-09-28T23:52:52;13.05;;;10.52;;
15806;SDS011;8005;51.368;6.140;2022-09-28T23:54:23;13.35;;;10.80;;
15806;SDS011;8005;51.368;6.140;2022-09-28T23:55:55;11.35;;;10.07;;
15806;SDS011;8005;51.368;6.140;2022-09-28T23:57:27;14.65;;;10.35;;
15806;SDS011;8005;51.368;6.140;2022-09-28T23:58:59;12.68;;;9.40;;
